sensor_id;sensor_type;location;lat;lon;timestamp;pressure;altitude;pressure_sealevel;temperature;humidity
56330;BME280;42236;48.058;10.632;2023-05-10T00:01:42;94163.06;;;12.63;100.00
56330;BME280;42236;48.058;10.632;2023-05-10T00:04:28;94159.94;;;12.60;100.00
56330;BME280;42236;48.058;10.632;2023-05-10T00:07:14;94161.44;;;12.58;100.00
56330;BME280;42236;48.058;10.632;2023-05-10T00:09:59;94161.84;;;12.56;100.00
56330;BME280;42236;48.058;10.632;2023-05-10T00:12:45;94154.06;;;12.55;100.00
56330;BME280;42236;48.058;10.632;2023-05-10T00:15:31;94152.09;;;12.52;100.00
56330;BME280;42236;48.058;10.632;2023-05-10T00:18:16;94150.53;;;12.51;100.00
56330;BME280;42236;48.058;10.632;2023-05-10T00:21:02;94147.03;;;12.50;100.00
56330;BME280;42236;48.058;10.632;2023-05-10T00:23:48;94146.69;;;12.52;100.00
56330;BME280;42236;48.058;10.632;2023-05-10T00:26:34;94143.56;;;12.50;100.00
56330;BME280;42236;48.058;10.632;2023-05-10T00:29:20;94135.88;;;12.52;100.00
56330;BME280;42236;48.058;10.632;2023-05-10T00:32:05;94133.53;;;12.50;100.00
56330;BME280;42236;48.058;10.632;2023-05-10T00:34:51;94133.09;;;12.48;100.00
56330;BME280;42236;48.058;10.632;2023-05-10T00:37:37;94135.03;;;12.48;100.00
56330;BME280;42236;48.058;10.632;2023-05-10T00:40:23;94140.00;;;12.46;100.00
56330;BME280;42236;48.058;10.632;2023-05-10T00:43:09;94133.06;;;12.45;100.00
56330;BME280;42236;48.058;10.632;2023-05-10T00:45:55;94132.25;;;12.44;100.00
56330;BME280;42236;48.058;10.632;2023-05-10T00:48:41;94139.97;;;12.42;100.00
56330;BME280;42236;48.058;10.632;2023-05-10T00:51:28;94131.44;;;12.40;100.00
56330;BME280;42236;48.058;10.632;2023-05-10T00:54:14;94132.56;;;12.39;100.00
56330;BME280;42236;48.058;10.632;2023-05-10T00:57:00;94135.28;;;12.39;100.00
56330;BME280;42236;48.058;10.632;2023-05-10T00:59:46;94131.78;;;12.38;100.00
56330;BME280;42236;48.058;10.632;2023-05-10T01:02:34;94134.06;;;12.36;100.00
56330;BME280;42236;48.058;10.632;2023-05-10T01:05:20;94136.78;;;12.36;100.00
56330;BME280;42236;48.058;10.632;2023-05-10T01:08:06;94135.22;;;12.35;100.00
56330;BME280;42236;48.058;10.632;2023-05-10T01:10:54;94122.84;;;12.34;100.00
56330;BME280;42236;48.058;10.632;2023-05-10T01:13:42;94129.81;;;12.35;100.00
56330;BME280;42236;48.058;10.632;2023-05-10T01:16:29;94139.06;;;12.34;100.00
56330;BME280;42236;48.058;10.632;2023-05-10T01:19:21;94136.00;;;12.36;100.00
56330;BME280;42236;48.058;10.632;2023-05-10T01:28:14;94132.06;;;12.30;100.00
56330;BME280;42236;48.058;10.632;2023-05-10T01:31:22;94132.44;;;12.28;100.00
56330;BME280;42236;48.058;10.632;2023-05-10T01:34:21;94137.47;;;12.30;100.00
56330;BME280;42236;48.058;10.632;2023-05-10T01:37:13;94135.13;;;12.28;100.00
56330;BME280;42236;48.058;10.632;2023-05-10T01:43:00;94145.53;;;12.26;100.00
56330;BME280;42236;48.058;10.632;2023-05-10T01:48:38;94140.53;;;12.28;100.00
56330;BME280;42236;48.058;10.632;2023-05-10T01:51:28;94141.28;;;12.25;100.00
56330;BME280;42236;48.058;10.632;2023-05-10T01:54:17;94150.09;;;12.22;100.00
56330;BME280;42236;48.058;10.632;2023-05-10T01:57:06;94144.75;;;12.26;100.00
56330;BME280;42236;48.058;10.632;2023-05-10T01:59:54;94155.91;;;12.24;100.00
56330;BME280;42236;48.058;10.632;2023-05-10T02:02:46;94148.97;;;12.23;100.00
56330;BME280;42236;48.058;10.632;2023-05-10T02:05:33;94147.38;;;12.22;100.00
56330;BME280;42236;48.058;10.632;2023-05-10T02:08:21;94159.78;;;12.23;100.00
56330;BME280;42236;48.058;10.632;2023-05-10T02:11:07;94159.00;;;12.23;100.00
56330;BME280;42236;48.058;10.632;2023-05-10T02:13:55;94163.25;;;12.24;100.00
56330;BME280;42236;48.058;10.632;2023-05-10T02:16:42;94159.00;;;12.23;100.00
56330;BME280;42236;48.058;10.632;2023-05-10T02:19:28;94163.59;;;12.22;100.00
56330;BME280;42236;48.058;10.632;2023-05-10T02:22:16;94168.25;;;12.22;100.00
56330;BME280;42236;48.058;10.632;2023-05-10T02:25:03;94159.34;;;12.21;100.00
56330;BME280;42236;48.058;10.632;2023-05-10T02:27:49;94164.34;;;12.19;100.00
56330;BME280;42236;48.058;10.632;2023-05-10T02:30:36;94161.28;;;12.21;100.00
56330;BME280;42236;48.058;10.632;2023-05-10T02:33:23;94172.09;;;12.21;100.00
56330;BME280;42236;48.058;10.632;2023-05-10T02:36:09;94172.88;;;12.21;100.00
56330;BME280;42236;48.058;10.632;2023-05-10T02:38:56;94171.72;;;12.22;100.00
56330;BME280;42236;48.058;10.632;2023-05-10T02:41:43;94176.72;;;12.20;100.00
56330;BME280;42236;48.058;10.632;2023-05-10T02:44:31;94175.13;;;12.15;100.00
56330;BME280;42236;48.058;10.632;2023-05-10T02:47:19;94176.25;;;12.14;100.00
56330;BME280;42236;48.058;10.632;2023-05-10T02:50:05;94177.41;;;12.13;100.00
56330;BME280;42236;48.058;10.632;2023-05-10T02:52:54;94175.81;;;12.12;100.00
56330;BME280;42236;48.058;10.632;2023-05-10T02:55:44;94178.53;;;12.12;100.00
56330;BME280;42236;48.058;10.632;2023-05-10T02:58:31;94171.97;;;12.13;100.00
56330;BME280;42236;48.058;10.632;2023-05-10T03:01:17;94178.09;;;12.10;100.00
56330;BME280;42236;48.058;10.632;2023-05-10T03:04:03;94182.72;;;12.10;100.00
56330;BME280;42236;48.058;10.632;2023-05-10T03:06:49;94179.97;;;12.06;100.00
56330;BME280;42236;48.058;10.632;2023-05-10T03:09:35;94177.97;;;12.03;100.00
56330;BME280;42236;48.058;10.632;2023-05-10T03:16:08;94175.56;;;11.98;100.00
56330;BME280;42236;48.058;10.632;2023-05-10T03:19:06;94188.63;;;11.92;100.00
56330;BME280;42236;48.058;10.632;2023-05-10T03:21:59;94190.91;;;11.90;100.00
56330;BME280;42236;48.058;10.632;2023-05-10T03:24:49;94187.75;;;11.88;100.00
56330;BME280;42236;48.058;10.632;2023-05-10T03:27:39;94187.00;;;11.88;100.00
56330;BME280;42236;48.058;10.632;2023-05-10T03:30:25;94194.22;;;11.84;100.00
56330;BME280;42236;48.058;10.632;2023-05-10T03:33:11;94195.31;;;11.79;100.00
56330;BME280;42236;48.058;10.632;2023-05-10T03:35:58;94199.88;;;11.75;100.00
56330;BME280;42236;48.058;10.632;2023-05-10T03:38:44;94202.88;;;11.70;100.00
56330;BME280;42236;48.058;10.632;2023-05-10T03:41:30;94200.50;;;11.68;100.00
56330;BME280;42236;48.058;10.632;2023-05-10T03:44:15;94201.16;;;11.62;100.00
56330;BME280;42236;48.058;10.632;2023-05-10T03:47:01;94214.94;;;11.57;100.00
56330;BME280;42236;48.058;10.632;2023-05-10T03:49:47;94201.38;;;11.53;100.00
56330;BME280;42236;48.058;10.632;2023-05-10T03:52:33;94212.13;;;11.49;100.00
56330;BME280;42236;48.058;10.632;2023-05-10T03:55:19;94210.91;;;11.47;100.00
56330;BME280;42236;48.058;10.632;2023-05-10T03:58:04;94211.63;;;11.44;100.00
56330;BME280;42236;48.058;10.632;2023-05-10T04:00:51;94210.84;;;11.43;100.00
56330;BME280;42236;48.058;10.632;2023-05-10T04:03:36;94210.03;;;11.43;100.00
56330;BME280;42236;48.058;10.632;2023-05-10T04:06:23;94214.25;;;11.40;100.00
56330;BME280;42236;48.058;10.632;2023-05-10T04:09:09;94213.75;;;11.35;100.00
56330;BME280;42236;48.058;10.632;2023-05-10T04:11:54;94212.84;;;11.27;100.00
56330;BME280;42236;48.058;10.632;2023-05-10T04:14:40;94218.53;;;11.22;100.00
56330;BME280;42236;48.058;10.632;2023-05-10T04:17:26;94225.03;;;11.21;100.00
56330;BME280;42236;48.058;10.632;2023-05-10T04:20:12;94216.66;;;11.26;100.00
56330;BME280;42236;48.058;10.632;2023-05-10T04:22:58;94225.28;;;11.31;100.00
56330;BME280;42236;48.058;10.632;2023-05-10T04:25:43;94237.72;;;11.36;100.00
56330;BME280;42236;48.058;10.632;2023-05-10T04:28:29;94233.16;;;11.40;100.00
56330;BME280;42236;48.058;10.632;2023-05-10T04:31:15;94236.00;;;11.47;100.00
56330;BME280;42236;48.058;10.632;2023-05-10T04:34:00;94237.28;;;11.53;100.00
56330;BME280;42236;48.058;10.632;2023-05-10T04:36:46;94246.94;;;11.54;100.00
56330;BME280;42236;48.058;10.632;2023-05-10T04:39:32;94246.53;;;11.52;100.00
56330;BME280;42236;48.058;10.632;2023-05-10T04:42:17;94248.16;;;11.57;100.00
56330;BME280;42236;48.058;10.632;2023-05-10T04:45:03;94256.78;;;11.63;100.00
56330;BME280;42236;48.058;10.632;2023-05-10T04:47:49;94251.06;;;11.68;100.00
56330;BME280;42236;48.058;10.632;2023-05-10T04:50:35;94252.63;;;11.69;100.00
56330;BME280;42236;48.058;10.632;2023-05-10T04:53:21;94261.88;;;11.68;100.00
56330;BME280;42236;48.058;10.632;2023-05-10T04:56:06;94257.59;;;11.67;100.00
56330;BME280;42236;48.058;10.632;2023-05-10T04:58:53;94262.84;;;11.60;100.00
56330;BME280;42236;48.058;10.632;2023-05-10T05:01:39;94260.59;;;11.62;100.00
56330;BME280;42236;48.058;10.632;2023-05-10T05:04:24;94262.47;;;11.58;100.00
56330;BME280;42236;48.058;10.632;2023-05-10T05:07:10;94262.94;;;11.63;100.00
56330;BME280;42236;48.058;10.632;2023-05-10T05:09:56;94265.69;;;11.67;100.00
56330;BME280;42236;48.058;10.632;2023-05-10T05:12:42;94273.19;;;11.73;100.00
56330;BME280;42236;48.058;10.632;2023-05-10T05:15:27;94269.22;;;11.67;100.00
56330;BME280;42236;48.058;10.632;2023-05-10T05:18:13;94280.78;;;11.68;100.00
56330;BME280;42236;48.058;10.632;2023-05-10T05:20:59;94276.13;;;11.65;100.00
56330;BME280;42236;48.058;10.632;2023-05-10T05:23:45;94286.19;;;11.68;100.00
56330;BME280;42236;48.058;10.632;2023-05-10T05:26:31;94275.38;;;11.68;100.00
56330;BME280;42236;48.058;10.632;2023-05-10T05:29:16;94280.84;;;11.71;100.00
56330;BME280;42236;48.058;10.632;2023-05-10T05:32:02;94282.44;;;11.72;100.00
56330;BME280;42236;48.058;10.632;2023-05-10T05:34:48;94284.75;;;11.74;100.00
56330;BME280;42236;48.058;10.632;2023-05-10T05:37:34;94280.22;;;11.78;100.00
56330;BME280;42236;48.058;10.632;2023-05-10T05:40:20;94292.31;;;11.84;100.00
56330;BME280;42236;48.058;10.632;2023-05-10T05:43:06;94292.50;;;11.91;100.00
56330;BME280;42236;48.058;10.632;2023-05-10T05:45:52;94289.06;;;11.94;100.00
56330;BME280;42236;48.058;10.632;2023-05-10T05:48:39;94288.28;;;11.94;100.00
56330;BME280;42236;48.058;10.632;2023-05-10T05:51:24;94294.94;;;12.00;100.00
56330;BME280;42236;48.058;10.632;2023-05-10T05:54:13;94299.28;;;12.05;100.00
56330;BME280;42236;48.058;10.632;2023-05-10T05:57:00;94297.75;;;12.04;100.00
56330;BME280;42236;48.058;10.632;2023-05-10T05:59:45;94291.59;;;12.07;100.00
56330;BME280;42236;48.058;10.632;2023-05-10T06:02:31;94293.97;;;12.08;100.00
56330;BME280;42236;48.058;10.632;2023-05-10T06:05:17;94292.47;;;12.11;100.00
56330;BME280;42236;48.058;10.632;2023-05-10T06:08:03;94309.94;;;12.17;100.00
56330;BME280;42236;48.058;10.632;2023-05-10T06:10:48;94300.13;;;12.28;100.00
56330;BME280;42236;48.058;10.632;2023-05-10T06:13:34;94310.19;;;12.31;100.00
56330;BME280;42236;48.058;10.632;2023-05-10T06:16:20;94304.50;;;12.36;100.00
56330;BME280;42236;48.058;10.632;2023-05-10T06:19:06;94307.41;;;12.47;100.00
56330;BME280;42236;48.058;10.632;2023-05-10T06:21:52;94311.00;;;12.55;100.00
56330;BME280;42236;48.058;10.632;2023-05-10T06:24:38;94318.09;;;12.63;100.00
56330;BME280;42236;48.058;10.632;2023-05-10T06:27:23;94320.63;;;12.75;100.00
56330;BME280;42236;48.058;10.632;2023-05-10T06:30:10;94330.00;;;12.81;100.00
56330;BME280;42236;48.058;10.632;2023-05-10T06:32:56;94330.06;;;12.85;100.00
56330;BME280;42236;48.058;10.632;2023-05-10T06:35:42;94329.81;;;12.94;100.00
56330;BME280;42236;48.058;10.632;2023-05-10T06:38:28;94340.03;;;13.04;100.00
56330;BME280;42236;48.058;10.632;2023-05-10T06:41:13;94340.34;;;12.99;99.75
56330;BME280;42236;48.058;10.632;2023-05-10T06:44:08;94336.63;;;13.07;99.59
56330;BME280;42236;48.058;10.632;2023-05-10T06:46:54;94338.69;;;13.17;98.75
56330;BME280;42236;48.058;10.632;2023-05-10T06:49:50;94336.81;;;13.21;99.48
56330;BME280;42236;48.058;10.632;2023-05-10T06:52:36;94337.75;;;13.29;99.61
56330;BME280;42236;48.058;10.632;2023-05-10T06:55:21;94347.50;;;13.34;98.73
56330;BME280;42236;48.058;10.632;2023-05-10T06:58:07;94347.19;;;13.39;99.10
56330;BME280;42236;48.058;10.632;2023-05-10T07:00:53;94336.75;;;13.41;97.59
56330;BME280;42236;48.058;10.632;2023-05-10T07:03:38;94331.59;;;13.32;97.46
56330;BME280;42236;48.058;10.632;2023-05-10T07:06:24;94338.72;;;13.44;98.36
56330;BME280;42236;48.058;10.632;2023-05-10T07:09:10;94334.13;;;13.48;96.99
56330;BME280;42236;48.058;10.632;2023-05-10T07:11:55;94342.84;;;13.61;97.19
56330;BME280;42236;48.058;10.632;2023-05-10T07:14:42;94339.13;;;13.73;96.06
56330;BME280;42236;48.058;10.632;2023-05-10T07:17:28;94338.28;;;13.69;95.76
56330;BME280;42236;48.058;10.632;2023-05-10T07:20:14;94339.03;;;13.65;95.83
56330;BME280;42236;48.058;10.632;2023-05-10T07:22:59;94344.03;;;13.63;95.42
56330;BME280;42236;48.058;10.632;2023-05-10T07:25:46;94340.56;;;13.66;95.87
56330;BME280;42236;48.058;10.632;2023-05-10T07:28:32;94341.44;;;13.74;95.97
56330;BME280;42236;48.058;10.632;2023-05-10T07:31:18;94348.38;;;13.72;95.04
56330;BME280;42236;48.058;10.632;2023-05-10T07:34:04;94343.28;;;13.66;94.44
56330;BME280;42236;48.058;10.632;2023-05-10T07:36:50;94345.31;;;13.73;94.99
56330;BME280;42236;48.058;10.632;2023-05-10T07:39:35;94350.94;;;13.87;95.37
56330;BME280;42236;48.058;10.632;2023-05-10T07:42:24;94352.78;;;14.14;94.54
56330;BME280;42236;48.058;10.632;2023-05-10T07:45:10;94345.13;;;14.23;93.37
56330;BME280;42236;48.058;10.632;2023-05-10T07:47:56;94342.03;;;14.21;93.17
56330;BME280;42236;48.058;10.632;2023-05-10T07:50:42;94356.78;;;14.23;93.77
56330;BME280;42236;48.058;10.632;2023-05-10T07:53:27;94353.09;;;14.42;92.77
56330;BME280;42236;48.058;10.632;2023-05-10T07:56:27;94351.47;;;14.34;91.90
56330;BME280;42236;48.058;10.632;2023-05-10T07:59:16;94347.84;;;14.23;91.63
56330;BME280;42236;48.058;10.632;2023-05-10T08:02:02;94349.75;;;14.19;92.82
56330;BME280;42236;48.058;10.632;2023-05-10T08:04:48;94363.72;;;14.21;92.00
56330;BME280;42236;48.058;10.632;2023-05-10T08:07:42;94353.75;;;14.32;91.21
56330;BME280;42236;48.058;10.632;2023-05-10T08:10:28;94349.94;;;14.37;91.12
56330;BME280;42236;48.058;10.632;2023-05-10T08:13:14;94349.56;;;14.38;90.48
56330;BME280;42236;48.058;10.632;2023-05-10T08:15:59;94352.53;;;14.60;89.67
56330;BME280;42236;48.058;10.632;2023-05-10T08:18:46;94353.81;;;14.69;89.52
56330;BME280;42236;48.058;10.632;2023-05-10T08:21:32;94355.00;;;14.72;87.69
56330;BME280;42236;48.058;10.632;2023-05-10T08:24:24;94344.06;;;14.65;87.98
56330;BME280;42236;48.058;10.632;2023-05-10T08:27:10;94341.75;;;14.67;88.11
56330;BME280;42236;48.058;10.632;2023-05-10T08:29:55;94351.78;;;14.63;87.12
56330;BME280;42236;48.058;10.632;2023-05-10T08:32:41;94356.09;;;14.67;86.69
56330;BME280;42236;48.058;10.632;2023-05-10T08:35:27;94350.63;;;14.64;86.39
56330;BME280;42236;48.058;10.632;2023-05-10T08:38:13;94353.69;;;14.59;86.73
56330;BME280;42236;48.058;10.632;2023-05-10T08:40:59;94347.91;;;14.64;86.95
56330;BME280;42236;48.058;10.632;2023-05-10T08:43:47;94349.50;;;14.65;86.34
56330;BME280;42236;48.058;10.632;2023-05-10T08:46:33;94350.88;;;14.51;86.39
56330;BME280;42236;48.058;10.632;2023-05-10T08:49:25;94355.69;;;14.28;87.81
56330;BME280;42236;48.058;10.632;2023-05-10T08:52:13;94369.50;;;13.85;88.72
56330;BME280;42236;48.058;10.632;2023-05-10T08:55:00;94375.19;;;13.50;90.26
56330;BME280;42236;48.058;10.632;2023-05-10T08:57:46;94366.88;;;13.13;91.31
56330;BME280;42236;48.058;10.632;2023-05-10T09:00:33;94372.84;;;12.76;92.35
56330;BME280;42236;48.058;10.632;2023-05-10T09:03:19;94367.28;;;12.46;92.64
56330;BME280;42236;48.058;10.632;2023-05-10T09:06:05;94380.44;;;12.47;93.60
56330;BME280;42236;48.058;10.632;2023-05-10T09:08:52;94367.31;;;12.69;94.63
56330;BME280;42236;48.058;10.632;2023-05-10T09:11:38;94368.91;;;12.96;94.97
56330;BME280;42236;48.058;10.632;2023-05-10T09:14:24;94372.63;;;13.11;93.86
56330;BME280;42236;48.058;10.632;2023-05-10T09:17:10;94370.03;;;13.18;93.95
56330;BME280;42236;48.058;10.632;2023-05-10T09:20:00;94363.38;;;13.35;93.39
56330;BME280;42236;48.058;10.632;2023-05-10T09:22:46;94366.34;;;13.53;93.47
56330;BME280;42236;48.058;10.632;2023-05-10T09:25:33;94373.00;;;13.59;93.08
56330;BME280;42236;48.058;10.632;2023-05-10T09:28:19;94365.91;;;13.78;93.92
56330;BME280;42236;48.058;10.632;2023-05-10T09:31:04;94371.09;;;13.90;92.21
56330;BME280;42236;48.058;10.632;2023-05-10T09:33:51;94365.59;;;13.83;92.17
56330;BME280;42236;48.058;10.632;2023-05-10T09:36:56;94372.53;;;13.80;91.42
56330;BME280;42236;48.058;10.632;2023-05-10T09:39:41;94377.09;;;13.76;91.82
56330;BME280;42236;48.058;10.632;2023-05-10T09:42:30;94377.69;;;13.62;90.61
56330;BME280;42236;48.058;10.632;2023-05-10T09:45:16;94374.41;;;13.76;92.10
56330;BME280;42236;48.058;10.632;2023-05-10T09:48:08;94377.16;;;13.80;91.37
56330;BME280;42236;48.058;10.632;2023-05-10T09:50:57;94370.66;;;13.84;90.60
56330;BME280;42236;48.058;10.632;2023-05-10T09:53:43;94374.84;;;13.82;90.05
56330;BME280;42236;48.058;10.632;2023-05-10T09:56:38;94373.53;;;13.69;87.81
56330;BME280;42236;48.058;10.632;2023-05-10T09:59:27;94373.72;;;13.83;89.33
56330;BME280;42236;48.058;10.632;2023-05-10T10:02:13;94378.16;;;13.98;88.97
56330;BME280;42236;48.058;10.632;2023-05-10T10:05:02;94380.72;;;14.18;88.00
56330;BME280;42236;48.058;10.632;2023-05-10T10:07:51;94378.41;;;14.16;87.90
56330;BME280;42236;48.058;10.632;2023-05-10T10:10:37;94372.06;;;14.05;88.47
56330;BME280;42236;48.058;10.632;2023-05-10T10:13:26;94366.28;;;14.06;87.89
56330;BME280;42236;48.058;10.632;2023-05-10T10:16:12;94361.97;;;14.05;87.39
56330;BME280;42236;48.058;10.632;2023-05-10T10:18:58;94364.75;;;14.09;86.68
56330;BME280;42236;48.058;10.632;2023-05-10T10:21:44;94370.59;;;14.11;85.64
56330;BME280;42236;48.058;10.632;2023-05-10T10:24:30;94378.44;;;14.20;85.98
56330;BME280;42236;48.058;10.632;2023-05-10T10:27:23;94369.84;;;14.14;83.66
56330;BME280;42236;48.058;10.632;2023-05-10T10:30:20;94375.53;;;14.05;84.86
56330;BME280;42236;48.058;10.632;2023-05-10T10:33:29;94370.88;;;14.02;85.30
56330;BME280;42236;48.058;10.632;2023-05-10T10:36:16;94372.75;;;13.98;85.82
56330;BME280;42236;48.058;10.632;2023-05-10T10:39:09;94370.09;;;14.02;86.63
56330;BME280;42236;48.058;10.632;2023-05-10T10:41:56;94375.28;;;14.14;86.61
56330;BME280;42236;48.058;10.632;2023-05-10T10:44:42;94370.78;;;14.29;85.92
56330;BME280;42236;48.058;10.632;2023-05-10T10:47:30;94368.44;;;14.27;85.87
56330;BME280;42236;48.058;10.632;2023-05-10T10:50:18;94368.91;;;14.33;85.33
56330;BME280;42236;48.058;10.632;2023-05-10T10:53:10;94383.41;;;14.14;85.49
56330;BME280;42236;48.058;10.632;2023-05-10T10:56:05;94377.97;;;13.84;87.65
56330;BME280;42236;48.058;10.632;2023-05-10T10:58:56;94381.94;;;13.90;88.01
56330;BME280;42236;48.058;10.632;2023-05-10T11:01:44;94382.13;;;14.04;88.21
56330;BME280;42236;48.058;10.632;2023-05-10T11:04:43;94384.59;;;14.17;88.96
56330;BME280;42236;48.058;10.632;2023-05-10T11:07:31;94379.00;;;14.36;88.49
56330;BME280;42236;48.058;10.632;2023-05-10T11:10:20;94374.88;;;14.49;88.66
56330;BME280;42236;48.058;10.632;2023-05-10T11:13:08;94377.75;;;14.60;87.80
56330;BME280;42236;48.058;10.632;2023-05-10T11:15:54;94383.66;;;14.69;87.57
56330;BME280;42236;48.058;10.632;2023-05-10T11:18:40;94382.94;;;14.76;88.22
56330;BME280;42236;48.058;10.632;2023-05-10T11:21:26;94382.94;;;14.76;88.46
56330;BME280;42236;48.058;10.632;2023-05-10T11:24:30;94388.94;;;14.55;87.40
56330;BME280;42236;48.058;10.632;2023-05-10T11:27:16;94383.41;;;14.48;88.44
56330;BME280;42236;48.058;10.632;2023-05-10T11:30:05;94381.44;;;13.81;86.00
56330;BME280;42236;48.058;10.632;2023-05-10T11:32:51;94387.31;;;13.33;89.21
56330;BME280;42236;48.058;10.632;2023-05-10T11:35:38;94387.88;;;13.19;90.23
56330;BME280;42236;48.058;10.632;2023-05-10T11:38:27;94384.84;;;13.24;90.39
56330;BME280;42236;48.058;10.632;2023-05-10T11:41:13;94384.19;;;13.31;89.81
56330;BME280;42236;48.058;10.632;2023-05-10T11:43:58;94388.63;;;13.43;89.95
56330;BME280;42236;48.058;10.632;2023-05-10T11:46:44;94391.19;;;13.59;90.12
56330;BME280;42236;48.058;10.632;2023-05-10T11:49:30;94396.09;;;13.76;89.85
56330;BME280;42236;48.058;10.632;2023-05-10T11:52:18;94400.97;;;13.94;89.75
56330;BME280;42236;48.058;10.632;2023-05-10T11:55:04;94405.34;;;14.02;89.30
56330;BME280;42236;48.058;10.632;2023-05-10T11:57:54;94398.66;;;13.96;90.12
56330;BME280;42236;48.058;10.632;2023-05-10T12:00:40;94410.00;;;13.75;89.30
56330;BME280;42236;48.058;10.632;2023-05-10T12:03:29;94416.41;;;13.13;88.50
56330;BME280;42236;48.058;10.632;2023-05-10T12:06:16;94411.41;;;12.50;91.03
56330;BME280;42236;48.058;10.632;2023-05-10T12:09:05;94423.59;;;12.01;92.49
56330;BME280;42236;48.058;10.632;2023-05-10T12:11:55;94426.63;;;11.64;94.05
56330;BME280;42236;48.058;10.632;2023-05-10T12:14:42;94432.16;;;11.36;94.93
56330;BME280;42236;48.058;10.632;2023-05-10T12:17:28;94437.22;;;11.22;96.22
56330;BME280;42236;48.058;10.632;2023-05-10T12:20:21;94428.59;;;11.16;96.70
56330;BME280;42236;48.058;10.632;2023-05-10T12:23:09;94433.31;;;11.19;96.38
56330;BME280;42236;48.058;10.632;2023-05-10T12:26:02;94438.53;;;11.12;95.71
56330;BME280;42236;48.058;10.632;2023-05-10T12:28:48;94440.63;;;11.03;95.48
56330;BME280;42236;48.058;10.632;2023-05-10T12:31:57;94450.91;;;10.97;96.10
56330;BME280;42236;48.058;10.632;2023-05-10T12:34:46;94455.66;;;11.04;97.01
56330;BME280;42236;48.058;10.632;2023-05-10T12:37:32;94452.38;;;11.10;97.14
56330;BME280;42236;48.058;10.632;2023-05-10T12:40:21;94449.59;;;11.23;97.79
56330;BME280;42236;48.058;10.632;2023-05-10T12:43:06;94452.81;;;11.28;97.90
56330;BME280;42236;48.058;10.632;2023-05-10T12:45:52;94462.72;;;11.40;97.51
56330;BME280;42236;48.058;10.632;2023-05-10T12:48:39;94462.50;;;11.45;97.49
56330;BME280;42236;48.058;10.632;2023-05-10T12:51:25;94467.78;;;11.42;97.21
56330;BME280;42236;48.058;10.632;2023-05-10T12:54:11;94463.78;;;11.36;96.79
56330;BME280;42236;48.058;10.632;2023-05-10T12:56:57;94470.31;;;11.35;97.07
56330;BME280;42236;48.058;10.632;2023-05-10T12:59:43;94469.97;;;11.36;97.21
56330;BME280;42236;48.058;10.632;2023-05-10T13:02:28;94470.25;;;11.31;97.31
56330;BME280;42236;48.058;10.632;2023-05-10T13:05:14;94463.88;;;11.39;97.72
56330;BME280;42236;48.058;10.632;2023-05-10T13:08:00;94468.84;;;11.53;97.28
56330;BME280;42236;48.058;10.632;2023-05-10T13:10:46;94467.69;;;11.70;97.41
56330;BME280;42236;48.058;10.632;2023-05-10T13:13:31;94469.56;;;11.85;96.37
56330;BME280;42236;48.058;10.632;2023-05-10T13:16:17;94470.28;;;11.82;95.70
56330;BME280;42236;48.058;10.632;2023-05-10T13:19:03;94467.38;;;11.91;95.59
56330;BME280;42236;48.058;10.632;2023-05-10T13:21:48;94475.88;;;11.89;95.14
56330;BME280;42236;48.058;10.632;2023-05-10T13:24:34;94469.31;;;11.90;95.36
56330;BME280;42236;48.058;10.632;2023-05-10T13:27:20;94464.44;;;11.96;95.51
56330;BME280;42236;48.058;10.632;2023-05-10T13:30:07;94465.44;;;12.07;95.95
56330;BME280;42236;48.058;10.632;2023-05-10T13:32:53;94473.34;;;12.16;95.20
56330;BME280;42236;48.058;10.632;2023-05-10T13:35:38;94472.06;;;12.29;95.32
56330;BME280;42236;48.058;10.632;2023-05-10T13:38:24;94470.81;;;12.43;95.30
56330;BME280;42236;48.058;10.632;2023-05-10T13:41:10;94465.97;;;12.52;95.11
56330;BME280;42236;48.058;10.632;2023-05-10T13:43:56;94467.22;;;12.58;94.39
56330;BME280;42236;48.058;10.632;2023-05-10T13:46:41;94471.56;;;12.63;94.78
56330;BME280;42236;48.058;10.632;2023-05-10T13:49:30;94464.94;;;12.60;94.10
56330;BME280;42236;48.058;10.632;2023-05-10T13:52:16;94461.91;;;12.62;93.64
56330;BME280;42236;48.058;10.632;2023-05-10T13:55:02;94467.22;;;12.58;93.73
56330;BME280;42236;48.058;10.632;2023-05-10T13:57:48;94464.97;;;12.41;93.96
56330;BME280;42236;48.058;10.632;2023-05-10T14:00:33;94460.69;;;12.40;94.25
56330;BME280;42236;48.058;10.632;2023-05-10T14:03:23;94460.91;;;12.31;94.52
56330;BME280;42236;48.058;10.632;2023-05-10T14:06:14;94463.19;;;12.29;94.19
56330;BME280;42236;48.058;10.632;2023-05-10T14:09:00;94459.69;;;12.28;94.29
56330;BME280;42236;48.058;10.632;2023-05-10T14:11:46;94461.53;;;12.24;94.98
56330;BME280;42236;48.058;10.632;2023-05-10T14:14:32;94468.66;;;12.13;94.19
56330;BME280;42236;48.058;10.632;2023-05-10T14:17:24;94457.84;;;12.13;95.26
56330;BME280;42236;48.058;10.632;2023-05-10T14:20:10;94463.38;;;12.20;94.76
56330;BME280;42236;48.058;10.632;2023-05-10T14:22:56;94462.09;;;12.14;94.38
56330;BME280;42236;48.058;10.632;2023-05-10T14:25:42;94473.41;;;12.20;95.77
56330;BME280;42236;48.058;10.632;2023-05-10T14:28:28;94470.94;;;12.30;96.10
56330;BME280;42236;48.058;10.632;2023-05-10T14:31:14;94469.16;;;12.38;95.26
56330;BME280;42236;48.058;10.632;2023-05-10T14:34:00;94465.97;;;12.32;94.37
56330;BME280;42236;48.058;10.632;2023-05-10T14:36:45;94471.69;;;12.11;94.58
56330;BME280;42236;48.058;10.632;2023-05-10T14:39:31;94471.13;;;12.02;95.32
56330;BME280;42236;48.058;10.632;2023-05-10T14:42:17;94478.22;;;12.10;96.21
56330;BME280;42236;48.058;10.632;2023-05-10T14:45:06;94479.75;;;12.27;96.40